TNCM/SXM METAR and TAF weather

Enter ICAO airport designator
Station Type Date Time Source
TNCM METAR 2019/12/07 17:26 UTC NOAA

TNCM 071726Z 06016KT 3000 -SHRA BKN014TCU 26/23 Q1017


Station Type Date Time Source
TNCM Decoded METAR 2019/12/07 17:26 UTC NOAA

Juliana Airport, Saint Maarten, Netherlands Antilles (TNCM) 18-03N 063-07W 9M
Dec 07, 2019 - 12:26 PM EST / 2019.12.07 1726 UTC
Wind: from the ENE (060 degrees) at 18 MPH (16 KT):0
Visibility: 1 mile(s):0
Sky conditions: mostly cloudy
Weather: light rain showers; Towering cumulus clouds observed
Temperature: 78 F (26 C)
Dew Point: 73 F (23 C)
Relative Humidity: 83%
Pressure (altimeter): 30.03 in. Hg (1017 hPa)
ob: TNCM 071726Z 06016KT 3000 -SHRA BKN014TCU 26/23 Q1017
cycle: 17

Station Type Date Time Source
TNCM TAF 2019/12/07 12:30 UTC NOAA

TAF TNCM 071124Z 0712/0812 08012KT P6SM VCSH SCT018
FM071800 08012KT P6SM FEW018

Example: see airport list